RSC73MZ GCLA-GCXO
Flight info
| Callsign | RSC73MZ |
|---|---|
| Flight time | 0h 22m |
| Altitude | 13000 |
| Route | TFN |
| Aircraft | AT76/M-SDFGRY/LB1 |
Departure
| Time | 2026-05-04 12:27 |
|---|---|
| Airport | La Palma Airport (GCLA) |
Arrival
| Time | 2026-05-04 12:49 |
|---|---|
| Airport | Tenerife Norte-Ciudad de La Laguna Airport (GCXO) |
| Time | Latitude | Longitude | Altitude | Speed | Heading |
|---|---|---|---|---|---|
| 2026-05-04 11:58 | 28.62083 | -17.75366 | 138 ft | 0 kts | 89° |
| 2026-05-04 12:23 | 28.62083 | -17.75367 | 111 ft | 2 kts | 89° |
| 2026-05-04 12:23 | 28.62083 | -17.75413 | 109 ft | 9 kts | 90° |
| 2026-05-04 12:23 | 28.62120 | -17.75453 | 111 ft | 8 kts | 159° |
| 2026-05-04 12:23 | 28.62126 | -17.75456 | 110 ft | 2 kts | 159° |
| 2026-05-04 12:24 | 28.62116 | -17.75452 | 110 ft | 1 kts | 163° |
| 2026-05-04 12:24 | 28.62110 | -17.75451 | 110 ft | 2 kts | 170° |
| 2026-05-04 12:24 | 28.62092 | -17.75453 | 109 ft | 1 kts | 202° |
| 2026-05-04 12:24 | 28.62084 | -17.75490 | 112 ft | 12 kts | 266° |
| 2026-05-04 12:25 | 28.61983 | -17.75549 | 112 ft | 23 kts | 177° |
| 2026-05-04 12:25 | 28.61843 | -17.75544 | 110 ft | 19 kts | 179° |
| 2026-05-04 12:25 | 28.61722 | -17.75550 | 109 ft | 17 kts | 200° |
| 2026-05-04 12:25 | 28.61628 | -17.75555 | 107 ft | 7 kts | 122° |
| 2026-05-04 12:26 | 28.61645 | -17.75537 | 108 ft | 10 kts | 3° |
| 2026-05-04 12:26 | 28.61727 | -17.75543 | 110 ft | 12 kts | 356° |
| 2026-05-04 12:26 | 28.61864 | -17.75544 | 112 ft | 45 kts | 359° |
| 2026-05-04 12:26 | 28.62402 | -17.75555 | 109 ft | 106 kts | 359° |
| 2026-05-04 12:27 | 28.63250 | -17.75601 | 336 ft | 127 kts | 359° |
| 2026-05-04 12:27 | 28.64119 | -17.75610 | 948 ft | 123 kts | 9° |
| 2026-05-04 12:27 | 28.64921 | -17.75235 | 1229 ft | 130 kts | 33° |
| 2026-05-04 12:27 | 28.65560 | -17.74459 | 1515 ft | 138 kts | 59° |
| 2026-05-04 12:28 | 28.66041 | -17.73545 | 1869 ft | 140 kts | 62° |
| 2026-05-04 12:28 | 28.66554 | -17.72485 | 1952 ft | 164 kts | 63° |
| 2026-05-04 12:28 | 28.67125 | -17.71323 | 2260 ft | 170 kts | 61° |
| 2026-05-04 12:28 | 28.67719 | -17.70154 | 2633 ft | 170 kts | 62° |
| 2026-05-04 12:29 | 28.67957 | -17.68884 | 2932 ft | 167 kts | 103° |
| 2026-05-04 12:29 | 28.67588 | -17.67616 | 3258 ft | 171 kts | 109° |
| 2026-05-04 12:29 | 28.67209 | -17.66311 | 3621 ft | 174 kts | 108° |
| 2026-05-04 12:29 | 28.66879 | -17.64974 | 4015 ft | 173 kts | 105° |
| 2026-05-04 12:30 | 28.66630 | -17.63673 | 4545 ft | 164 kts | 101° |
| 2026-05-04 12:30 | 28.66452 | -17.62385 | 4934 ft | 165 kts | 98° |
| 2026-05-04 12:30 | 28.66309 | -17.61074 | 5269 ft | 169 kts | 98° |
| 2026-05-04 12:30 | 28.66174 | -17.59738 | 5614 ft | 170 kts | 97° |
| 2026-05-04 12:31 | 28.66039 | -17.58384 | 5945 ft | 173 kts | 97° |
| 2026-05-04 12:31 | 28.65907 | -17.57021 | 6284 ft | 175 kts | 97° |
| 2026-05-04 12:31 | 28.65780 | -17.55608 | 6539 ft | 181 kts | 97° |
| 2026-05-04 12:31 | 28.65648 | -17.54182 | 6848 ft | 183 kts | 98° |
| 2026-05-04 12:32 | 28.65507 | -17.52742 | 7168 ft | 184 kts | 97° |
| 2026-05-04 12:32 | 28.65212 | -17.49839 | 7821 ft | 185 kts | 98° |
| 2026-05-04 12:32 | 28.65067 | -17.48385 | 8117 ft | 187 kts | 98° |
| 2026-05-04 12:33 | 28.64916 | -17.46912 | 8421 ft | 188 kts | 99° |
| 2026-05-04 12:33 | 28.64758 | -17.45399 | 8563 ft | 201 kts | 99° |
| 2026-05-04 12:33 | 28.64583 | -17.43791 | 8679 ft | 211 kts | 99° |
| 2026-05-04 12:33 | 28.64396 | -17.42119 | 8931 ft | 215 kts | 99° |
| 2026-05-04 12:34 | 28.64210 | -17.40392 | 9033 ft | 225 kts | 99° |
| 2026-05-04 12:34 | 28.64010 | -17.38575 | 9074 ft | 237 kts | 99° |
| 2026-05-04 12:34 | 28.63810 | -17.36671 | 9092 ft | 247 kts | 99° |
| 2026-05-04 12:34 | 28.63606 | -17.34696 | 9091 ft | 255 kts | 98° |
| 2026-05-04 12:35 | 28.63399 | -17.32662 | 9098 ft | 261 kts | 98° |
| 2026-05-04 12:35 | 28.63186 | -17.30594 | 9099 ft | 265 kts | 98° |
| 2026-05-04 12:35 | 28.62969 | -17.28494 | 9096 ft | 269 kts | 98° |
| 2026-05-04 12:35 | 28.62749 | -17.26372 | 9097 ft | 271 kts | 98° |
| 2026-05-04 12:36 | 28.62529 | -17.24235 | 9094 ft | 272 kts | 98° |
| 2026-05-04 12:36 | 28.62307 | -17.22087 | 9100 ft | 273 kts | 98° |
| 2026-05-04 12:36 | 28.62083 | -17.19935 | 9097 ft | 274 kts | 98° |
| 2026-05-04 12:36 | 28.61855 | -17.17774 | 9102 ft | 275 kts | 98° |
| 2026-05-04 12:37 | 28.61636 | -17.15641 | 9094 ft | 276 kts | 98° |
| 2026-05-04 12:37 | 28.61411 | -17.13474 | 9100 ft | 276 kts | 98° |
| 2026-05-04 12:37 | 28.61183 | -17.11309 | 9099 ft | 276 kts | 98° |
| 2026-05-04 12:37 | 28.60953 | -17.09138 | 9104 ft | 276 kts | 98° |
| 2026-05-04 12:38 | 28.60724 | -17.06970 | 9098 ft | 277 kts | 98° |
| 2026-05-04 12:38 | 28.60496 | -17.04790 | 9093 ft | 277 kts | 98° |
| 2026-05-04 12:38 | 28.60266 | -17.02617 | 9087 ft | 277 kts | 98° |
| 2026-05-04 12:38 | 28.60036 | -17.00438 | 9090 ft | 278 kts | 98° |
| 2026-05-04 12:39 | 28.59806 | -16.98257 | 9093 ft | 278 kts | 98° |
| 2026-05-04 12:39 | 28.59576 | -16.96070 | 9090 ft | 278 kts | 98° |
| 2026-05-04 12:39 | 28.59345 | -16.93887 | 9093 ft | 278 kts | 98° |
| 2026-05-04 12:39 | 28.59115 | -16.91713 | 9094 ft | 278 kts | 98° |
| 2026-05-04 12:40 | 28.58881 | -16.89527 | 9108 ft | 278 kts | 98° |
| 2026-05-04 12:40 | 28.58651 | -16.87342 | 9032 ft | 281 kts | 98° |
| 2026-05-04 12:40 | 28.58411 | -16.85105 | 8744 ft | 288 kts | 98° |
| 2026-05-04 12:40 | 28.58171 | -16.82848 | 8373 ft | 285 kts | 98° |
| 2026-05-04 12:41 | 28.57934 | -16.80624 | 8002 ft | 281 kts | 98° |
| 2026-05-04 12:41 | 28.57700 | -16.78431 | 7637 ft | 278 kts | 98° |
| 2026-05-04 12:41 | 28.57467 | -16.76263 | 7288 ft | 275 kts | 98° |
| 2026-05-04 12:41 | 28.57237 | -16.74117 | 6932 ft | 272 kts | 98° |
| 2026-05-04 12:42 | 28.57011 | -16.71994 | 6587 ft | 269 kts | 98° |
| 2026-05-04 12:42 | 28.56794 | -16.69918 | 6227 ft | 267 kts | 98° |
| 2026-05-04 12:42 | 28.56575 | -16.67796 | 5846 ft | 265 kts | 97° |
| 2026-05-04 12:42 | 28.56362 | -16.65751 | 5497 ft | 262 kts | 97° |
| 2026-05-04 12:43 | 28.56146 | -16.63714 | 5186 ft | 257 kts | 97° |
| 2026-05-04 12:43 | 28.55930 | -16.61706 | 4877 ft | 253 kts | 97° |
| 2026-05-04 12:43 | 28.55715 | -16.59727 | 4555 ft | 250 kts | 97° |
| 2026-05-04 12:43 | 28.55504 | -16.57787 | 4256 ft | 245 kts | 97° |
| 2026-05-04 12:44 | 28.55299 | -16.55899 | 4109 ft | 236 kts | 97° |
| 2026-05-04 12:44 | 28.55072 | -16.54105 | 4040 ft | 221 kts | 100° |
| 2026-05-04 12:44 | 28.54617 | -16.52491 | 4007 ft | 208 kts | 113° |
| 2026-05-04 12:44 | 28.53992 | -16.51049 | 3995 ft | 198 kts | 120° |
| 2026-05-04 12:45 | 28.53349 | -16.49714 | 3995 ft | 186 kts | 113° |
| 2026-05-04 12:45 | 28.52901 | -16.48411 | 3990 ft | 170 kts | 110° |
| 2026-05-04 12:45 | 28.52523 | -16.47193 | 3990 ft | 157 kts | 108° |
| 2026-05-04 12:45 | 28.52219 | -16.46042 | 3983 ft | 148 kts | 107° |
| 2026-05-04 12:46 | 28.51892 | -16.44977 | 4048 ft | 131 kts | 108° |
| 2026-05-04 12:46 | 28.51569 | -16.44019 | 3894 ft | 129 kts | 112° |
| 2026-05-04 12:46 | 28.51193 | -16.43117 | 3752 ft | 124 kts | 114° |
| 2026-05-04 12:46 | 28.50887 | -16.42196 | 3477 ft | 122 kts | 105° |
| 2026-05-04 12:47 | 28.50617 | -16.41308 | 3216 ft | 117 kts | 110° |
| 2026-05-04 12:47 | 28.50327 | -16.40486 | 3004 ft | 111 kts | 108° |
| 2026-05-04 12:47 | 28.50077 | -16.39671 | 2853 ft | 108 kts | 107° |
| 2026-05-04 12:47 | 28.49819 | -16.38901 | 2684 ft | 102 kts | 110° |
| 2026-05-04 12:48 | 28.49576 | -16.38106 | 2552 ft | 106 kts | 110° |
| 2026-05-04 12:48 | 28.49314 | -16.37323 | 2440 ft | 105 kts | 108° |
| 2026-05-04 12:48 | 28.49067 | -16.36561 | 2280 ft | 101 kts | 110° |
| 2026-05-04 12:48 | 28.48819 | -16.35825 | 2110 ft | 98 kts | 109° |
| 2026-05-04 12:49 | 28.48607 | -16.35181 | 2083 ft | 74 kts | 111° |
| 2026-05-04 12:49 | 28.48443 | -16.34697 | 2071 ft | 59 kts | 112° |
| 2026-05-04 12:49 | 28.48313 | -16.34293 | 2056 ft | 50 kts | 110° |
| 2026-05-04 12:49 | 28.48279 | -16.34137 | 2048 ft | 1 kts | 82° |
| 2026-05-04 12:50 | 28.48288 | -16.34133 | 2047 ft | 5 kts | 359° |
| 2026-05-04 12:50 | 28.48337 | -16.34178 | 2048 ft | 11 kts | 319° |
| 2026-05-04 12:50 | 28.48384 | -16.34223 | 2049 ft | 0 kts | 321° |
| 2026-05-04 12:50 | 28.48389 | -16.34227 | 2049 ft | 4 kts | 321° |
| 2026-05-04 12:51 | 28.48419 | -16.34268 | 2050 ft | 9 kts | 293° |
| 2026-05-04 12:51 | 28.48448 | -16.34350 | 2053 ft | 12 kts | 289° |
| 2026-05-04 12:51 | 28.48479 | -16.34447 | 2057 ft | 14 kts | 291° |
| 2026-05-04 12:51 | 28.48515 | -16.34553 | 2063 ft | 14 kts | 291° |
| 2026-05-04 12:52 | 28.48548 | -16.34655 | 2068 ft | 13 kts | 289° |
| 2026-05-04 12:52 | 28.48581 | -16.34752 | 2073 ft | 13 kts | 292° |
| 2026-05-04 12:52 | 28.48614 | -16.34844 | 2077 ft | 12 kts | 292° |
| 2026-05-04 12:52 | 28.48647 | -16.34939 | 2080 ft | 15 kts | 287° |
| 2026-05-04 12:53 | 28.48673 | -16.35031 | 2080 ft | 8 kts | 289° |
| 2026-05-04 12:53 | 28.48717 | -16.35090 | 2077 ft | 9 kts | 7° |
| 2026-05-04 12:53 | 28.48786 | -16.35062 | 2073 ft | 9 kts | 21° |
| 2026-05-04 12:53 | 28.48791 | -16.35059 | 2073 ft | 0 kts | 21° |